createdAt,value
2018-09-11T00:00:20.232Z,54.20
2018-09-11T00:04:24.035Z,54.20
2018-09-11T00:08:27.681Z,54.20
2018-09-11T00:12:31.295Z,54.20
2018-09-11T00:16:34.957Z,54.30
2018-09-11T00:20:38.621Z,54.30
2018-09-11T00:24:42.280Z,54.30
2018-09-11T00:28:45.958Z,54.30
2018-09-11T00:32:49.580Z,54.40
2018-09-11T00:36:53.355Z,54.40
2018-09-11T00:40:57.015Z,55.00
2018-09-11T00:45:00.680Z,54.70
2018-09-11T00:49:04.356Z,54.70
2018-09-11T00:53:07.984Z,55.20
2018-09-11T00:57:11.625Z,55.00
2018-09-11T01:01:15.267Z,55.20
2018-09-11T01:05:18.928Z,55.40
2018-09-11T01:09:23.508Z,55.50
2018-09-11T01:13:27.133Z,56.30
2018-09-11T01:17:30.769Z,55.80
2018-09-11T01:21:34.521Z,55.90
2018-09-11T01:25:38.180Z,55.90
2018-09-11T01:29:41.926Z,56.10
2018-09-11T01:33:45.575Z,56.20
2018-09-11T01:37:49.192Z,56.20
2018-09-11T01:41:52.872Z,57.30
2018-09-11T01:45:56.536Z,57.20
2018-09-11T01:50:00.186Z,56.90
2018-09-11T01:54:03.916Z,56.60
2018-09-11T01:58:07.583Z,57.80
2018-09-11T02:02:11.275Z,56.90
2018-09-11T02:06:14.953Z,56.20
2018-09-11T02:10:18.603Z,56.50
2018-09-11T02:14:22.268Z,56.60
2018-09-11T02:18:25.893Z,56.40
2018-09-11T02:22:29.544Z,56.30
2018-09-11T02:26:33.196Z,56.60
2018-09-11T02:30:36.876Z,57.30
2018-09-11T02:34:40.524Z,56.60
2018-09-11T02:38:44.225Z,56.80
2018-09-11T02:42:47.915Z,56.70
2018-09-11T02:46:51.576Z,56.90
2018-09-11T02:50:55.241Z,58.20
2018-09-11T02:54:58.975Z,57.60
2018-09-11T02:59:02.688Z,58.00
2018-09-11T03:03:06.375Z,58.00
2018-09-11T03:07:10.045Z,57.40
2018-09-11T03:11:13.703Z,57.80
2018-09-11T03:15:17.377Z,57.30
2018-09-11T03:19:21.041Z,57.80
2018-09-11T03:23:24.763Z,57.90
2018-09-11T03:27:28.426Z,57.60
2018-09-11T03:31:32.124Z,57.80
2018-09-11T03:35:35.840Z,57.60
2018-09-11T03:39:39.610Z,57.80
2018-09-11T03:43:43.287Z,58.60
2018-09-11T03:47:46.939Z,58.30
2018-09-11T03:51:50.584Z,58.10
2018-09-11T03:55:54.249Z,58.30
2018-09-11T03:59:57.898Z,57.70
2018-09-11T04:04:01.967Z,58.30
2018-09-11T04:08:05.679Z,59.00
2018-09-11T04:12:09.359Z,60.20
2018-09-11T04:16:13.012Z,59.10
2018-09-11T04:20:16.800Z,59.40
2018-09-11T04:24:20.429Z,59.40
2018-09-11T04:28:24.147Z,60.00
2018-09-11T04:32:27.815Z,59.10
2018-09-11T04:36:31.606Z,58.60
2018-09-11T04:40:35.178Z,59.20
2018-09-11T04:44:38.841Z,61.00
2018-09-11T04:48:44.208Z,60.20
2018-09-11T04:52:47.889Z,60.20
2018-09-11T04:56:51.547Z,59.50
2018-09-11T05:00:55.204Z,61.10
2018-09-11T05:04:58.835Z,59.90
2018-09-11T05:09:02.516Z,60.60
2018-09-11T05:13:06.260Z,59.90
2018-09-11T05:17:09.934Z,61.40
2018-09-11T05:21:13.591Z,60.60
2018-09-11T05:25:17.205Z,60.70
2018-09-11T05:29:20.875Z,60.40
2018-09-11T05:33:24.532Z,61.30
2018-09-11T05:37:28.163Z,61.70
2018-09-11T05:41:31.829Z,60.90
2018-09-11T05:45:35.461Z,61.20
2018-09-11T05:49:39.113Z,60.70
2018-09-11T05:53:42.806Z,61.20
2018-09-11T05:57:46.491Z,62.10
2018-09-11T06:01:50.220Z,60.50
2018-09-11T06:05:53.847Z,60.80
2018-09-11T06:09:57.564Z,62.10
2018-09-11T06:14:01.220Z,62.00
2018-09-11T06:18:04.906Z,61.00
2018-09-11T06:22:08.871Z,63.30
2018-09-11T06:26:12.548Z,61.90
2018-09-11T06:30:16.336Z,62.80
2018-09-11T06:34:19.984Z,61.40
2018-09-11T06:38:23.644Z,62.90
2018-09-11T06:42:27.312Z,63.20
2018-09-11T06:46:31.084Z,63.20
2018-09-11T06:50:34.727Z,62.40
2018-09-11T06:54:38.500Z,62.70
2018-09-11T06:58:42.290Z,62.60
2018-09-11T07:02:45.940Z,62.10
2018-09-11T07:06:49.608Z,61.20
2018-09-11T07:10:53.242Z,62.50
2018-09-11T07:14:56.930Z,62.50
2018-09-11T07:19:00.599Z,62.30
2018-09-11T07:23:04.364Z,62.30
2018-09-11T07:27:08.031Z,62.50
2018-09-11T07:31:11.764Z,62.80
2018-09-11T07:35:15.405Z,62.40
2018-09-11T07:39:19.184Z,62.90
2018-09-11T07:43:22.869Z,62.60
2018-09-11T07:47:26.530Z,62.80
2018-09-11T07:51:30.159Z,62.40
2018-09-11T07:55:33.831Z,62.00
2018-09-11T07:59:37.503Z,62.10
2018-09-11T08:03:41.177Z,60.80
2018-09-11T08:07:44.972Z,59.40
2018-09-11T08:11:48.643Z,58.80
2018-09-11T08:15:52.318Z,58.60
2018-09-11T08:19:56.242Z,58.90
2018-09-11T08:23:59.881Z,59.10
2018-09-11T08:28:03.574Z,59.40
2018-09-11T08:32:07.252Z,59.50
2018-09-11T08:36:11.020Z,59.60
2018-09-11T08:40:14.691Z,59.60
2018-09-11T08:44:18.360Z,58.90
2018-09-11T08:48:22.033Z,59.40
2018-09-11T08:52:25.738Z,59.10
2018-09-11T08:56:29.404Z,59.00
2018-09-11T09:00:33.081Z,58.90
2018-09-11T09:04:36.749Z,59.00
2018-09-11T09:08:40.430Z,58.60
2018-09-11T09:12:44.064Z,58.30
2018-09-11T09:16:47.829Z,57.80
2018-09-11T09:20:51.537Z,58.30
2018-09-11T09:24:55.206Z,58.40
2018-09-11T09:28:58.896Z,58.30
2018-09-11T09:33:02.537Z,57.80
2018-09-11T09:37:06.383Z,58.10
2018-09-11T09:41:10.052Z,57.00
2018-09-11T09:45:13.712Z,57.00
2018-09-11T09:49:17.392Z,57.30
2018-09-11T09:53:21.024Z,57.30
2018-09-11T09:57:24.683Z,57.80
2018-09-11T10:01:33.657Z,57.30
2018-09-11T10:05:37.349Z,57.20
2018-09-11T10:09:41.017Z,56.70
2018-09-11T10:13:44.653Z,57.20
2018-09-11T10:17:48.352Z,56.70
2018-09-11T10:21:52.157Z,56.80
2018-09-11T10:25:55.850Z,56.30
2018-09-11T10:29:59.565Z,56.30
2018-09-11T10:34:03.200Z,54.60
2018-09-11T10:38:06.881Z,55.70
2018-09-11T10:42:10.531Z,55.50
2018-09-11T10:46:14.285Z,55.40
2018-09-11T10:50:17.912Z,54.40
2018-09-11T10:54:21.567Z,55.20
2018-09-11T10:58:25.234Z,54.60
2018-09-11T11:02:28.926Z,54.80
2018-09-11T11:06:32.605Z,54.70
2018-09-11T11:10:36.305Z,54.70
2018-09-11T11:14:39.987Z,54.30
2018-09-11T11:18:43.671Z,54.60
2018-09-11T11:22:47.351Z,54.00
2018-09-11T11:26:51.112Z,55.20
2018-09-11T11:30:54.753Z,54.40
2018-09-11T11:34:58.419Z,53.90
2018-09-11T11:39:02.098Z,54.40
2018-09-11T11:43:05.958Z,54.10
2018-09-11T11:47:09.613Z,53.90
2018-09-11T11:51:13.320Z,53.30
2018-09-11T11:55:16.982Z,53.60
2018-09-11T11:59:20.662Z,54.30
2018-09-11T12:03:24.348Z,53.20
2018-09-11T12:07:28.008Z,53.80
2018-09-11T12:11:31.696Z,53.40
2018-09-11T12:15:35.348Z,52.80
2018-09-11T12:19:39.131Z,53.90
2018-09-11T12:23:42.848Z,53.80
2018-09-11T12:27:46.487Z,53.20
2018-09-11T12:31:50.216Z,52.70
2018-09-11T12:35:53.964Z,52.70
2018-09-11T12:39:57.684Z,52.50
2018-09-11T12:44:01.329Z,52.20
2018-09-11T12:48:05.456Z,52.70
2018-09-11T12:52:08.778Z,51.60
2018-09-11T12:56:12.450Z,51.50
2018-09-11T13:00:16.127Z,51.50
2018-09-11T13:04:19.805Z,51.40
2018-09-11T13:08:23.529Z,51.30
2018-09-11T13:12:27.247Z,51.60
2018-09-11T13:16:30.934Z,50.00
2018-09-11T13:20:34.621Z,51.00
2018-09-11T13:24:38.342Z,50.30
2018-09-11T13:28:42.041Z,50.40
2018-09-11T13:32:45.761Z,50.10
2018-09-11T13:36:49.432Z,50.60
2018-09-11T13:40:53.090Z,48.80
2018-09-11T13:44:56.715Z,48.60
2018-09-11T13:49:00.376Z,49.70
2018-09-11T13:53:04.054Z,49.30
2018-09-11T13:57:07.751Z,49.60
2018-09-11T14:01:11.397Z,48.70
2018-09-11T14:05:15.024Z,49.10
2018-09-11T14:09:18.764Z,49.10
2018-09-11T14:13:22.436Z,48.90
2018-09-11T14:17:26.129Z,48.40
2018-09-11T14:21:29.806Z,48.50
2018-09-11T14:25:33.429Z,47.80
2018-09-11T14:29:37.244Z,46.90
2018-09-11T14:33:40.896Z,47.40
2018-09-11T14:37:44.588Z,46.80
2018-09-11T14:41:48.262Z,46.80
2018-09-11T14:45:51.907Z,47.70
2018-09-11T14:49:55.595Z,46.50
2018-09-11T14:53:59.293Z,46.60
2018-09-11T14:58:02.966Z,47.90
2018-09-11T15:02:06.688Z,46.40
2018-09-11T15:06:10.316Z,46.50
2018-09-11T15:10:14.016Z,46.70
2018-09-11T15:14:17.681Z,47.10
2018-09-11T15:18:21.373Z,46.70
2018-09-11T15:22:25.041Z,47.30
2018-09-11T15:26:28.759Z,47.60
2018-09-11T15:30:32.476Z,47.20
2018-09-11T15:34:36.152Z,47.80
2018-09-11T15:38:39.908Z,46.90
2018-09-11T15:42:43.604Z,48.00
2018-09-11T15:46:47.322Z,47.20
2018-09-11T15:50:51.104Z,47.80
2018-09-11T15:54:54.761Z,47.70
2018-09-11T15:58:58.437Z,48.10
2018-09-11T16:03:02.114Z,48.20
2018-09-11T16:07:05.860Z,48.00
2018-09-11T16:11:09.582Z,48.10
2018-09-11T16:15:13.669Z,47.90
2018-09-11T16:19:17.335Z,48.20
2018-09-11T16:23:20.998Z,47.40
2018-09-11T16:27:24.624Z,47.60
2018-09-11T16:31:28.753Z,47.50
2018-09-11T16:35:32.429Z,47.80
2018-09-11T16:39:36.118Z,47.80
2018-09-11T16:43:39.774Z,48.00
2018-09-11T16:47:43.397Z,48.50
2018-09-11T16:51:47.068Z,48.70
2018-09-11T16:55:50.760Z,48.60
2018-09-11T16:59:54.428Z,48.90
2018-09-11T17:03:58.091Z,49.10
2018-09-11T17:08:01.786Z,48.90
2018-09-11T17:12:05.551Z,48.70
2018-09-11T17:16:09.661Z,48.70
2018-09-11T17:20:13.443Z,48.40
2018-09-11T17:24:17.144Z,48.60
2018-09-11T17:28:20.765Z,48.90
2018-09-11T17:32:24.483Z,48.60
2018-09-11T17:36:28.152Z,48.60
2018-09-11T17:40:31.821Z,48.80
2018-09-11T17:44:35.505Z,48.60
2018-09-11T17:48:39.315Z,49.10
2018-09-11T17:52:43.041Z,49.40
2018-09-11T17:56:46.688Z,49.40
2018-09-11T18:00:50.470Z,49.50
2018-09-11T18:04:54.129Z,49.40
2018-09-11T18:08:57.993Z,49.40
2018-09-11T18:13:01.628Z,49.40
2018-09-11T18:17:05.412Z,49.50
2018-09-11T18:21:09.096Z,49.60
2018-09-11T18:25:12.800Z,49.70
2018-09-11T18:29:16.509Z,49.80
2018-09-11T18:33:20.192Z,49.80
2018-09-11T18:37:23.913Z,50.40
2018-09-11T18:41:27.540Z,50.00
2018-09-11T18:45:31.185Z,49.80
2018-09-11T18:49:34.894Z,50.00
2018-09-11T18:53:38.561Z,50.10
2018-09-11T18:57:42.355Z,50.10
2018-09-11T19:01:45.940Z,50.20
2018-09-11T19:05:49.628Z,50.20
2018-09-11T19:09:53.297Z,50.30
2018-09-11T19:13:56.974Z,50.30
2018-09-11T19:18:00.621Z,50.30
2018-09-11T19:22:04.306Z,50.40
2018-09-11T19:26:07.978Z,50.30
2018-09-11T19:30:12.205Z,50.40
2018-09-11T19:34:15.988Z,50.50
2018-09-11T19:38:19.559Z,50.60
2018-09-11T19:42:23.368Z,50.50
2018-09-11T19:46:26.925Z,50.60
2018-09-11T19:50:30.595Z,50.60
2018-09-11T19:54:34.277Z,50.50
2018-09-11T19:58:37.979Z,50.60
2018-09-11T20:02:41.657Z,50.70
2018-09-11T20:06:45.333Z,50.70
2018-09-11T20:10:49.046Z,50.60
2018-09-11T20:14:52.703Z,50.70
2018-09-11T20:18:56.425Z,50.70
2018-09-11T20:23:00.076Z,50.70
2018-09-11T20:27:03.789Z,50.80
2018-09-11T20:31:07.496Z,50.80
2018-09-11T20:35:11.199Z,50.80
2018-09-11T20:39:15.266Z,50.80
2018-09-11T20:43:18.924Z,50.80
2018-09-11T20:47:22.625Z,50.90
2018-09-11T20:51:26.249Z,50.90
2018-09-11T20:55:29.914Z,51.00
2018-09-11T20:59:33.608Z,51.00
